sensor_id;sensor_type;location;lat;lon;timestamp;P1;durP1;ratioP1;P2;durP2;ratioP2
8938;SDS011;4504;48.810;9.172;2022-09-01T00:01:38;113.93;;;6.77;;
8938;SDS011;4504;48.810;9.172;2022-09-01T00:04:07;113.50;;;7.73;;
8938;SDS011;4504;48.810;9.172;2022-09-01T00:06:37;114.60;;;6.63;;
8938;SDS011;4504;48.810;9.172;2022-09-01T00:09:05;117.60;;;7.03;;
8938;SDS011;4504;48.810;9.172;2022-09-01T00:11:34;112.83;;;6.40;;
8938;SDS011;4504;48.810;9.172;2022-09-01T00:14:02;113.00;;;6.40;;
8938;SDS011;4504;48.810;9.172;2022-09-01T00:16:32;114.43;;;6.80;;
8938;SDS011;4504;48.810;9.172;2022-09-01T00:18:59;116.43;;;7.30;;
8938;SDS011;4504;48.810;9.172;2022-09-01T00:21:29;117.13;;;7.17;;
8938;SDS011;4504;48.810;9.172;2022-09-01T00:23:58;116.40;;;6.63;;
8938;SDS011;4504;48.810;9.172;2022-09-01T00:26:26;117.47;;;7.70;;
8938;SDS011;4504;48.810;9.172;2022-09-01T00:28:54;115.93;;;7.37;;
8938;SDS011;4504;48.810;9.172;2022-09-01T00:31:21;118.87;;;7.53;;
8938;SDS011;4504;48.810;9.172;2022-09-01T00:33:50;113.10;;;6.47;;
8938;SDS011;4504;48.810;9.172;2022-09-01T00:36:17;117.43;;;7.50;;
8938;SDS011;4504;48.810;9.172;2022-09-01T00:38:45;112.13;;;5.87;;
8938;SDS011;4504;48.810;9.172;2022-09-01T00:41:13;114.30;;;7.03;;
8938;SDS011;4504;48.810;9.172;2022-09-01T00:43:42;119.90;;;6.83;;
8938;SDS011;4504;48.810;9.172;2022-09-01T00:46:13;114.13;;;6.60;;
8938;SDS011;4504;48.810;9.172;2022-09-01T00:48:41;113.30;;;6.70;;
8938;SDS011;4504;48.810;9.172;2022-09-01T00:51:10;115.17;;;6.87;;
8938;SDS011;4504;48.810;9.172;2022-09-01T00:53:38;115.53;;;7.00;;
8938;SDS011;4504;48.810;9.172;2022-09-01T00:56:08;114.33;;;7.03;;
8938;SDS011;4504;48.810;9.172;2022-09-01T00:58:35;114.57;;;6.20;;
8938;SDS011;4504;48.810;9.172;2022-09-01T01:01:04;123.70;;;7.03;;
8938;SDS011;4504;48.810;9.172;2022-09-01T01:03:32;114.27;;;6.00;;
8938;SDS011;4504;48.810;9.172;2022-09-01T01:06:00;112.80;;;6.13;;
8938;SDS011;4504;48.810;9.172;2022-09-01T01:08:35;115.73;;;7.10;;
8938;SDS011;4504;48.810;9.172;2022-09-01T01:11:06;113.67;;;6.70;;
8938;SDS011;4504;48.810;9.172;2022-09-01T01:13:45;115.30;;;6.07;;
8938;SDS011;4504;48.810;9.172;2022-09-01T01:16:15;114.83;;;6.30;;
8938;SDS011;4504;48.810;9.172;2022-09-01T01:18:43;114.67;;;6.27;;
8938;SDS011;4504;48.810;9.172;2022-09-01T01:21:14;114.30;;;5.80;;
8938;SDS011;4504;48.810;9.172;2022-09-01T01:24:03;115.57;;;7.03;;
8938;SDS011;4504;48.810;9.172;2022-09-01T01:26:37;114.87;;;6.80;;
8938;SDS011;4504;48.810;9.172;2022-09-01T01:29:04;114.67;;;7.07;;
8938;SDS011;4504;48.810;9.172;2022-09-01T01:31:34;115.60;;;5.83;;
8938;SDS011;4504;48.810;9.172;2022-09-01T01:34:02;116.37;;;5.93;;
8938;SDS011;4504;48.810;9.172;2022-09-01T01:36:35;115.77;;;6.13;;
8938;SDS011;4504;48.810;9.172;2022-09-01T01:39:09;116.73;;;6.83;;
8938;SDS011;4504;48.810;9.172;2022-09-01T01:41:39;114.10;;;6.50;;
8938;SDS011;4504;48.810;9.172;2022-09-01T01:44:10;116.00;;;7.23;;
8938;SDS011;4504;48.810;9.172;2022-09-01T01:46:39;114.43;;;6.40;;
8938;SDS011;4504;48.810;9.172;2022-09-01T01:49:09;111.50;;;5.80;;
8938;SDS011;4504;48.810;9.172;2022-09-01T01:51:39;113.47;;;6.00;;
8938;SDS011;4504;48.810;9.172;2022-09-01T01:54:06;114.57;;;6.90;;
8938;SDS011;4504;48.810;9.172;2022-09-01T01:56:33;113.97;;;6.47;;
8938;SDS011;4504;48.810;9.172;2022-09-01T01:59:05;115.23;;;6.67;;
8938;SDS011;4504;48.810;9.172;2022-09-01T02:01:34;113.13;;;5.63;;
8938;SDS011;4504;48.810;9.172;2022-09-01T02:04:03;115.10;;;6.70;;
8938;SDS011;4504;48.810;9.172;2022-09-01T02:06:31;114.10;;;6.27;;
8938;SDS011;4504;48.810;9.172;2022-09-01T02:09:01;121.57;;;6.83;;
8938;SDS011;4504;48.810;9.172;2022-09-01T02:11:29;113.27;;;6.53;;
8938;SDS011;4504;48.810;9.172;2022-09-01T02:13:57;112.33;;;5.80;;
8938;SDS011;4504;48.810;9.172;2022-09-01T02:16:27;115.47;;;6.30;;
8938;SDS011;4504;48.810;9.172;2022-09-01T02:18:57;113.50;;;6.20;;
8938;SDS011;4504;48.810;9.172;2022-09-01T02:21:25;112.20;;;6.07;;
8938;SDS011;4504;48.810;9.172;2022-09-01T02:23:53;114.10;;;6.27;;
8938;SDS011;4504;48.810;9.172;2022-09-01T02:26:24;112.87;;;5.73;;
8938;SDS011;4504;48.810;9.172;2022-09-01T02:28:57;115.10;;;6.90;;
8938;SDS011;4504;48.810;9.172;2022-09-01T02:31:27;115.50;;;6.50;;
8938;SDS011;4504;48.810;9.172;2022-09-01T02:33:58;112.00;;;5.60;;
8938;SDS011;4504;48.810;9.172;2022-09-01T02:36:26;112.67;;;6.00;;
8938;SDS011;4504;48.810;9.172;2022-09-01T02:38:56;113.57;;;5.60;;
8938;SDS011;4504;48.810;9.172;2022-09-01T02:41:24;112.23;;;5.60;;
8938;SDS011;4504;48.810;9.172;2022-09-01T02:43:53;111.97;;;5.60;;
8938;SDS011;4504;48.810;9.172;2022-09-01T02:46:22;114.50;;;6.47;;
8938;SDS011;4504;48.810;9.172;2022-09-01T02:48:50;113.47;;;6.47;;
8938;SDS011;4504;48.810;9.172;2022-09-01T02:51:19;114.73;;;6.67;;
8938;SDS011;4504;48.810;9.172;2022-09-01T02:53:50;112.60;;;6.40;;
8938;SDS011;4504;48.810;9.172;2022-09-01T02:56:18;114.77;;;5.97;;
8938;SDS011;4504;48.810;9.172;2022-09-01T02:58:48;114.77;;;5.80;;
8938;SDS011;4504;48.810;9.172;2022-09-01T03:01:16;113.40;;;6.60;;
8938;SDS011;4504;48.810;9.172;2022-09-01T03:03:51;113.73;;;6.37;;
8938;SDS011;4504;48.810;9.172;2022-09-01T03:06:21;117.00;;;6.23;;
8938;SDS011;4504;48.810;9.172;2022-09-01T03:08:49;119.60;;;6.53;;
8938;SDS011;4504;48.810;9.172;2022-09-01T03:11:17;113.70;;;6.27;;
8938;SDS011;4504;48.810;9.172;2022-09-01T03:13:44;113.27;;;6.37;;
8938;SDS011;4504;48.810;9.172;2022-09-01T03:16:12;114.77;;;6.10;;
8938;SDS011;4504;48.810;9.172;2022-09-01T03:18:39;113.30;;;5.37;;
8938;SDS011;4504;48.810;9.172;2022-09-01T03:21:08;113.90;;;6.70;;
8938;SDS011;4504;48.810;9.172;2022-09-01T03:23:40;113.70;;;6.30;;
8938;SDS011;4504;48.810;9.172;2022-09-01T03:26:07;117.23;;;6.50;;
8938;SDS011;4504;48.810;9.172;2022-09-01T03:28:34;114.33;;;6.60;;
8938;SDS011;4504;48.810;9.172;2022-09-01T03:31:02;112.43;;;6.03;;
8938;SDS011;4504;48.810;9.172;2022-09-01T03:33:30;112.87;;;5.30;;
8938;SDS011;4504;48.810;9.172;2022-09-01T03:35:59;113.50;;;5.70;;
8938;SDS011;4504;48.810;9.172;2022-09-01T03:38:27;116.17;;;6.60;;
8938;SDS011;4504;48.810;9.172;2022-09-01T03:40:58;113.87;;;5.70;;
8938;SDS011;4504;48.810;9.172;2022-09-01T03:43:28;112.87;;;5.80;;
8938;SDS011;4504;48.810;9.172;2022-09-01T03:45:56;115.70;;;6.50;;
8938;SDS011;4504;48.810;9.172;2022-09-01T03:48:26;114.90;;;6.20;;
8938;SDS011;4504;48.810;9.172;2022-09-01T03:50:55;114.57;;;6.50;;
8938;SDS011;4504;48.810;9.172;2022-09-01T03:53:29;114.37;;;6.27;;
8938;SDS011;4504;48.810;9.172;2022-09-01T03:55:59;114.67;;;6.40;;
8938;SDS011;4504;48.810;9.172;2022-09-01T03:58:29;115.80;;;6.97;;
8938;SDS011;4504;48.810;9.172;2022-09-01T04:00:57;114.17;;;6.43;;
8938;SDS011;4504;48.810;9.172;2022-09-01T04:03:28;115.30;;;6.47;;
8938;SDS011;4504;48.810;9.172;2022-09-01T04:05:58;112.77;;;5.80;;
8938;SDS011;4504;48.810;9.172;2022-09-01T04:08:27;116.70;;;6.97;;
8938;SDS011;4504;48.810;9.172;2022-09-01T04:10:58;116.07;;;7.40;;
8938;SDS011;4504;48.810;9.172;2022-09-01T04:13:33;114.57;;;7.13;;
8938;SDS011;4504;48.810;9.172;2022-09-01T04:16:01;115.93;;;7.10;;
8938;SDS011;4504;48.810;9.172;2022-09-01T04:18:34;113.47;;;6.30;;
8938;SDS011;4504;48.810;9.172;2022-09-01T04:21:01;112.40;;;5.50;;
8938;SDS011;4504;48.810;9.172;2022-09-01T04:23:33;114.33;;;6.40;;
8938;SDS011;4504;48.810;9.172;2022-09-01T04:26:07;115.17;;;6.30;;
8938;SDS011;4504;48.810;9.172;2022-09-01T04:28:40;114.50;;;6.80;;
8938;SDS011;4504;48.810;9.172;2022-09-01T04:31:11;114.90;;;6.27;;
8938;SDS011;4504;48.810;9.172;2022-09-01T04:33:45;120.43;;;6.13;;
8938;SDS011;4504;48.810;9.172;2022-09-01T04:36:15;115.20;;;7.07;;
8938;SDS011;4504;48.810;9.172;2022-09-01T04:38:47;115.80;;;6.80;;
8938;SDS011;4504;48.810;9.172;2022-09-01T04:41:19;114.90;;;7.00;;
8938;SDS011;4504;48.810;9.172;2022-09-01T04:43:47;115.87;;;6.70;;
8938;SDS011;4504;48.810;9.172;2022-09-01T04:46:16;115.50;;;6.43;;
8938;SDS011;4504;48.810;9.172;2022-09-01T04:48:45;115.43;;;6.13;;
8938;SDS011;4504;48.810;9.172;2022-09-01T04:51:14;115.07;;;6.87;;
8938;SDS011;4504;48.810;9.172;2022-09-01T04:53:53;113.20;;;6.33;;
8938;SDS011;4504;48.810;9.172;2022-09-01T04:56:21;116.70;;;6.63;;
8938;SDS011;4504;48.810;9.172;2022-09-01T04:59:05;116.10;;;6.10;;
8938;SDS011;4504;48.810;9.172;2022-09-01T05:01:36;115.20;;;6.50;;
8938;SDS011;4504;48.810;9.172;2022-09-01T05:04:11;115.70;;;6.60;;
8938;SDS011;4504;48.810;9.172;2022-09-01T05:06:42;114.63;;;6.27;;
8938;SDS011;4504;48.810;9.172;2022-09-01T05:09:12;113.70;;;6.40;;
8938;SDS011;4504;48.810;9.172;2022-09-01T05:12:02;113.93;;;6.13;;
8938;SDS011;4504;48.810;9.172;2022-09-01T05:14:36;112.30;;;6.30;;
8938;SDS011;4504;48.810;9.172;2022-09-01T05:17:07;114.97;;;6.87;;
8938;SDS011;4504;48.810;9.172;2022-09-01T05:19:35;118.10;;;6.50;;
8938;SDS011;4504;48.810;9.172;2022-09-01T05:22:02;112.87;;;6.10;;
8938;SDS011;4504;48.810;9.172;2022-09-01T05:24:33;115.50;;;6.63;;
8938;SDS011;4504;48.810;9.172;2022-09-01T05:27:03;115.83;;;6.60;;
8938;SDS011;4504;48.810;9.172;2022-09-01T05:29:33;115.87;;;6.80;;
8938;SDS011;4504;48.810;9.172;2022-09-01T05:32:04;114.90;;;7.13;;
8938;SDS011;4504;48.810;9.172;2022-09-01T05:34:38;115.83;;;6.30;;
8938;SDS011;4504;48.810;9.172;2022-09-01T05:37:09;113.47;;;6.50;;
8938;SDS011;4504;48.810;9.172;2022-09-01T05:39:38;191.53;;;44.50;;
8938;SDS011;4504;48.810;9.172;2022-09-01T05:42:05;123.77;;;9.60;;
8938;SDS011;4504;48.810;9.172;2022-09-01T05:44:34;114.90;;;6.40;;
8938;SDS011;4504;48.810;9.172;2022-09-01T05:47:02;114.37;;;6.80;;
8938;SDS011;4504;48.810;9.172;2022-09-01T05:49:30;114.70;;;6.73;;
8938;SDS011;4504;48.810;9.172;2022-09-01T05:52:01;114.27;;;6.10;;
8938;SDS011;4504;48.810;9.172;2022-09-01T05:54:29;113.47;;;6.80;;
8938;SDS011;4504;48.810;9.172;2022-09-01T05:56:58;113.97;;;6.40;;
8938;SDS011;4504;48.810;9.172;2022-09-01T05:59:26;114.90;;;7.07;;
8938;SDS011;4504;48.810;9.172;2022-09-01T06:02:04;114.07;;;6.53;;
8938;SDS011;4504;48.810;9.172;2022-09-01T06:04:34;116.37;;;6.50;;
8938;SDS011;4504;48.810;9.172;2022-09-01T06:07:06;116.17;;;7.00;;
8938;SDS011;4504;48.810;9.172;2022-09-01T06:09:41;114.30;;;6.73;;
8938;SDS011;4504;48.810;9.172;2022-09-01T06:12:11;114.40;;;6.07;;
8938;SDS011;4504;48.810;9.172;2022-09-01T06:14:43;114.00;;;6.00;;
8938;SDS011;4504;48.810;9.172;2022-09-01T06:17:13;115.63;;;6.90;;
8938;SDS011;4504;48.810;9.172;2022-09-01T06:19:41;116.57;;;8.10;;
8938;SDS011;4504;48.810;9.172;2022-09-01T06:22:08;114.67;;;6.87;;
8938;SDS011;4504;48.810;9.172;2022-09-01T06:24:35;114.80;;;6.80;;
8938;SDS011;4504;48.810;9.172;2022-09-01T06:27:04;118.57;;;7.33;;
8938;SDS011;4504;48.810;9.172;2022-09-01T06:29:35;114.37;;;6.60;;
8938;SDS011;4504;48.810;9.172;2022-09-01T06:32:04;112.30;;;5.63;;
8938;SDS011;4504;48.810;9.172;2022-09-01T06:34:35;117.60;;;6.80;;
8938;SDS011;4504;48.810;9.172;2022-09-01T06:37:06;112.97;;;6.53;;
8938;SDS011;4504;48.810;9.172;2022-09-01T06:39:34;114.87;;;7.10;;
8938;SDS011;4504;48.810;9.172;2022-09-01T06:42:01;115.07;;;8.20;;
8938;SDS011;4504;48.810;9.172;2022-09-01T06:44:41;118.47;;;8.30;;
8938;SDS011;4504;48.810;9.172;2022-09-01T06:47:10;117.07;;;7.07;;
8938;SDS011;4504;48.810;9.172;2022-09-01T06:49:37;113.60;;;5.87;;
8938;SDS011;4504;48.810;9.172;2022-09-01T06:52:09;113.60;;;6.57;;
8938;SDS011;4504;48.810;9.172;2022-09-01T06:54:38;114.40;;;6.90;;
8938;SDS011;4504;48.810;9.172;2022-09-01T06:57:08;112.60;;;6.57;;
8938;SDS011;4504;48.810;9.172;2022-09-01T06:59:35;113.80;;;6.93;;
8938;SDS011;4504;48.810;9.172;2022-09-01T07:02:05;113.90;;;6.00;;
8938;SDS011;4504;48.810;9.172;2022-09-01T07:04:55;114.37;;;7.20;;
8938;SDS011;4504;48.810;9.172;2022-09-01T07:07:23;114.37;;;6.93;;
8938;SDS011;4504;48.810;9.172;2022-09-01T07:10:41;114.17;;;6.70;;
8938;SDS011;4504;48.810;9.172;2022-09-01T07:13:16;112.07;;;7.07;;
8938;SDS011;4504;48.810;9.172;2022-09-01T07:15:48;113.70;;;6.40;;
8938;SDS011;4504;48.810;9.172;2022-09-01T07:18:19;113.73;;;7.30;;
8938;SDS011;4504;48.810;9.172;2022-09-01T07:20:49;115.50;;;7.10;;
8938;SDS011;4504;48.810;9.172;2022-09-01T07:23:17;116.30;;;7.77;;
8938;SDS011;4504;48.810;9.172;2022-09-01T07:25:47;115.40;;;7.07;;
8938;SDS011;4504;48.810;9.172;2022-09-01T07:28:30;114.40;;;7.10;;
8938;SDS011;4504;48.810;9.172;2022-09-01T07:30:58;113.10;;;6.03;;
8938;SDS011;4504;48.810;9.172;2022-09-01T07:33:28;113.40;;;6.20;;
8938;SDS011;4504;48.810;9.172;2022-09-01T07:35:56;119.90;;;6.90;;
8938;SDS011;4504;48.810;9.172;2022-09-01T07:38:24;113.97;;;6.30;;
8938;SDS011;4504;48.810;9.172;2022-09-01T07:40:53;113.30;;;5.80;;
8938;SDS011;4504;48.810;9.172;2022-09-01T07:43:39;113.30;;;6.77;;
8938;SDS011;4504;48.810;9.172;2022-09-01T07:46:28;114.77;;;7.17;;
8938;SDS011;4504;48.810;9.172;2022-09-01T07:48:59;111.70;;;6.40;;
8938;SDS011;4504;48.810;9.172;2022-09-01T07:51:28;114.43;;;6.63;;
8938;SDS011;4504;48.810;9.172;2022-09-01T07:53:56;111.70;;;6.07;;
8938;SDS011;4504;48.810;9.172;2022-09-01T07:56:27;111.70;;;5.57;;
8938;SDS011;4504;48.810;9.172;2022-09-01T07:58:55;112.20;;;5.80;;
8938;SDS011;4504;48.810;9.172;2022-09-01T08:01:24;111.77;;;5.50;;
8938;SDS011;4504;48.810;9.172;2022-09-01T08:03:53;110.03;;;4.90;;
8938;SDS011;4504;48.810;9.172;2022-09-01T08:06:24;110.17;;;4.63;;
8938;SDS011;4504;48.810;9.172;2022-09-01T08:08:55;113.03;;;5.77;;
8938;SDS011;4504;48.810;9.172;2022-09-01T08:11:25;110.67;;;5.30;;
8938;SDS011;4504;48.810;9.172;2022-09-01T08:13:54;118.23;;;7.73;;
8938;SDS011;4504;48.810;9.172;2022-09-01T08:16:23;121.60;;;7.27;;
8938;SDS011;4504;48.810;9.172;2022-09-01T08:18:51;111.27;;;6.73;;
8938;SDS011;4504;48.810;9.172;2022-09-01T08:21:25;110.80;;;5.27;;
8938;SDS011;4504;48.810;9.172;2022-09-01T08:23:58;110.30;;;5.73;;
8938;SDS011;4504;48.810;9.172;2022-09-01T08:26:26;109.03;;;4.87;;
8938;SDS011;4504;48.810;9.172;2022-09-01T08:28:53;110.17;;;5.07;;
8938;SDS011;4504;48.810;9.172;2022-09-01T08:31:41;111.30;;;5.10;;
8938;SDS011;4504;48.810;9.172;2022-09-01T08:34:08;110.97;;;5.53;;
8938;SDS011;4504;48.810;9.172;2022-09-01T08:36:39;108.63;;;3.90;;
8938;SDS011;4504;48.810;9.172;2022-09-01T08:39:06;110.10;;;4.60;;
8938;SDS011;4504;48.810;9.172;2022-09-01T08:41:36;108.87;;;4.43;;
8938;SDS011;4504;48.810;9.172;2022-09-01T08:44:12;109.60;;;4.70;;
8938;SDS011;4504;48.810;9.172;2022-09-01T08:46:48;109.27;;;5.33;;
8938;SDS011;4504;48.810;9.172;2022-09-01T08:49:24;109.40;;;4.47;;
8938;SDS011;4504;48.810;9.172;2022-09-01T08:52:13;107.27;;;4.03;;
8938;SDS011;4504;48.810;9.172;2022-09-01T08:54:48;108.37;;;3.67;;
8938;SDS011;4504;48.810;9.172;2022-09-01T08:57:19;107.87;;;3.90;;
8938;SDS011;4504;48.810;9.172;2022-09-01T09:00:08;107.97;;;4.60;;
8938;SDS011;4504;48.810;9.172;2022-09-01T09:02:42;108.03;;;4.60;;
8938;SDS011;4504;48.810;9.172;2022-09-01T09:05:22;108.97;;;4.20;;
8938;SDS011;4504;48.810;9.172;2022-09-01T09:08:15;108.50;;;3.73;;
8938;SDS011;4504;48.810;9.172;2022-09-01T09:11:02;108.07;;;3.90;;
8938;SDS011;4504;48.810;9.172;2022-09-01T09:13:39;109.90;;;4.10;;
8938;SDS011;4504;48.810;9.172;2022-09-01T09:16:14;109.17;;;4.03;;
8938;SDS011;4504;48.810;9.172;2022-09-01T09:18:46;107.93;;;4.50;;
8938;SDS011;4504;48.810;9.172;2022-09-01T09:21:16;108.10;;;4.10;;
8938;SDS011;4504;48.810;9.172;2022-09-01T09:23:53;108.10;;;3.90;;
8938;SDS011;4504;48.810;9.172;2022-09-01T09:26:24;106.73;;;3.57;;
8938;SDS011;4504;48.810;9.172;2022-09-01T09:28:51;108.87;;;4.30;;
8938;SDS011;4504;48.810;9.172;2022-09-01T09:31:29;108.10;;;4.17;;
8938;SDS011;4504;48.810;9.172;2022-09-01T09:33:58;108.53;;;5.10;;
8938;SDS011;4504;48.810;9.172;2022-09-01T09:36:30;108.87;;;4.27;;
8938;SDS011;4504;48.810;9.172;2022-09-01T09:41:59;106.50;;;4.27;;
8938;SDS011;4504;48.810;9.172;2022-09-01T09:44:38;109.00;;;4.20;;
8938;SDS011;4504;48.810;9.172;2022-09-01T09:47:08;107.10;;;4.20;;
8938;SDS011;4504;48.810;9.172;2022-09-01T09:49:35;107.80;;;3.93;;
8938;SDS011;4504;48.810;9.172;2022-09-01T09:52:13;107.50;;;4.30;;
8938;SDS011;4504;48.810;9.172;2022-09-01T09:57:28;108.90;;;4.27;;
8938;SDS011;4504;48.810;9.172;2022-09-01T09:59:57;107.47;;;4.00;;
8938;SDS011;4504;48.810;9.172;2022-09-01T10:02:39;108.30;;;3.90;;
8938;SDS011;4504;48.810;9.172;2022-09-01T10:05:21;108.57;;;4.33;;
8938;SDS011;4504;48.810;9.172;2022-09-01T10:07:51;107.93;;;4.00;;
8938;SDS011;4504;48.810;9.172;2022-09-01T10:10:29;107.50;;;3.77;;
8938;SDS011;4504;48.810;9.172;2022-09-01T10:13:02;108.43;;;4.13;;
8938;SDS011;4504;48.810;9.172;2022-09-01T10:15:31;107.20;;;4.23;;
8938;SDS011;4504;48.810;9.172;2022-09-01T10:17:59;106.77;;;3.63;;
8938;SDS011;4504;48.810;9.172;2022-09-01T10:20:32;107.83;;;3.87;;
8938;SDS011;4504;48.810;9.172;2022-09-01T10:23:02;107.37;;;3.80;;
8938;SDS011;4504;48.810;9.172;2022-09-01T10:25:31;107.93;;;4.03;;
8938;SDS011;4504;48.810;9.172;2022-09-01T10:28:02;108.53;;;3.70;;
8938;SDS011;4504;48.810;9.172;2022-09-01T10:30:36;108.97;;;3.90;;
8938;SDS011;4504;48.810;9.172;2022-09-01T10:33:07;106.50;;;3.20;;
8938;SDS011;4504;48.810;9.172;2022-09-01T10:35:35;115.20;;;3.57;;
8938;SDS011;4504;48.810;9.172;2022-09-01T10:38:06;105.20;;;3.20;;
8938;SDS011;4504;48.810;9.172;2022-09-01T10:40:40;107.40;;;3.90;;
8938;SDS011;4504;48.810;9.172;2022-09-01T10:43:27;106.83;;;3.80;;
8938;SDS011;4504;48.810;9.172;2022-09-01T10:46:06;103.27;;;2.93;;
8938;SDS011;4504;48.810;9.172;2022-09-01T10:48:35;106.40;;;3.43;;
8938;SDS011;4504;48.810;9.172;2022-09-01T10:54:07;105.23;;;3.10;;
8938;SDS011;4504;48.810;9.172;2022-09-01T10:56:56;106.47;;;3.17;;
8938;SDS011;4504;48.810;9.172;2022-09-01T10:59:25;106.27;;;3.63;;
8938;SDS011;4504;48.810;9.172;2022-09-01T11:07:36;104.37;;;2.90;;
8938;SDS011;4504;48.810;9.172;2022-09-01T11:13:05;106.07;;;3.20;;
8938;SDS011;4504;48.810;9.172;2022-09-01T11:15:49;105.57;;;3.30;;
8938;SDS011;4504;48.810;9.172;2022-09-01T11:18:22;107.37;;;4.07;;
8938;SDS011;4504;48.810;9.172;2022-09-01T11:20:52;106.20;;;3.37;;
8938;SDS011;4504;48.810;9.172;2022-09-01T11:23:21;105.70;;;3.17;;
8938;SDS011;4504;48.810;9.172;2022-09-01T11:25:50;106.13;;;3.30;;
8938;SDS011;4504;48.810;9.172;2022-09-01T11:31:21;104.17;;;3.17;;
8938;SDS011;4504;48.810;9.172;2022-09-01T11:34:10;105.60;;;3.07;;
8938;SDS011;4504;48.810;9.172;2022-09-01T11:36:50;105.30;;;3.10;;
8938;SDS011;4504;48.810;9.172;2022-09-01T11:39:23;104.80;;;3.20;;
8938;SDS011;4504;48.810;9.172;2022-09-01T11:42:06;103.07;;;2.90;;
8938;SDS011;4504;48.810;9.172;2022-09-01T11:44:41;104.67;;;2.80;;
8938;SDS011;4504;48.810;9.172;2022-09-01T11:47:16;105.37;;;3.30;;
8938;SDS011;4504;48.810;9.172;2022-09-01T11:49:51;104.20;;;2.90;;
8938;SDS011;4504;48.810;9.172;2022-09-01T11:52:22;103.93;;;2.77;;
8938;SDS011;4504;48.810;9.172;2022-09-01T11:54:54;104.80;;;2.83;;
8938;SDS011;4504;48.810;9.172;2022-09-01T11:57:22;104.60;;;2.80;;
8938;SDS011;4504;48.810;9.172;2022-09-01T11:59:53;104.20;;;2.80;;
8938;SDS011;4504;48.810;9.172;2022-09-01T12:02:23;103.40;;;2.97;;
8938;SDS011;4504;48.810;9.172;2022-09-01T12:04:52;102.67;;;2.73;;
8938;SDS011;4504;48.810;9.172;2022-09-01T12:07:24;106.93;;;2.90;;
8938;SDS011;4504;48.810;9.172;2022-09-01T12:09:55;103.97;;;2.80;;
8938;SDS011;4504;48.810;9.172;2022-09-01T12:12:27;104.57;;;3.03;;
8938;SDS011;4504;48.810;9.172;2022-09-01T12:15:02;103.57;;;2.83;;
8938;SDS011;4504;48.810;9.172;2022-09-01T12:17:31;103.83;;;3.03;;
8938;SDS011;4504;48.810;9.172;2022-09-01T12:22:48;105.33;;;3.30;;
8938;SDS011;4504;48.810;9.172;2022-09-01T12:25:17;103.23;;;2.60;;
8938;SDS011;4504;48.810;9.172;2022-09-01T12:27:46;102.67;;;3.00;;
8938;SDS011;4504;48.810;9.172;2022-09-01T12:30:15;104.57;;;2.70;;
8938;SDS011;4504;48.810;9.172;2022-09-01T12:32:44;102.70;;;2.60;;
8938;SDS011;4504;48.810;9.172;2022-09-01T12:35:13;104.30;;;3.17;;
8938;SDS011;4504;48.810;9.172;2022-09-01T12:37:43;103.77;;;2.63;;
8938;SDS011;4504;48.810;9.172;2022-09-01T12:40:20;105.00;;;3.00;;
8938;SDS011;4504;48.810;9.172;2022-09-01T12:42:50;102.03;;;2.50;;
8938;SDS011;4504;48.810;9.172;2022-09-01T12:48:22;103.10;;;2.60;;
8938;SDS011;4504;48.810;9.172;2022-09-01T12:50:53;101.37;;;2.20;;
8938;SDS011;4504;48.810;9.172;2022-09-01T12:53:25;103.10;;;2.70;;
8938;SDS011;4504;48.810;9.172;2022-09-01T12:55:55;103.17;;;2.80;;
8938;SDS011;4504;48.810;9.172;2022-09-01T12:58:28;102.67;;;2.30;;
8938;SDS011;4504;48.810;9.172;2022-09-01T13:00:58;102.10;;;2.63;;
8938;SDS011;4504;48.810;9.172;2022-09-01T13:03:29;103.27;;;2.50;;
8938;SDS011;4504;48.810;9.172;2022-09-01T13:05:58;103.17;;;2.10;;
8938;SDS011;4504;48.810;9.172;2022-09-01T13:08:26;101.60;;;2.27;;
8938;SDS011;4504;48.810;9.172;2022-09-01T13:10:57;103.07;;;2.67;;
8938;SDS011;4504;48.810;9.172;2022-09-01T13:13:27;102.57;;;2.40;;
8938;SDS011;4504;48.810;9.172;2022-09-01T13:15:55;102.27;;;2.60;;
8938;SDS011;4504;48.810;9.172;2022-09-01T13:18:26;101.07;;;2.30;;
8938;SDS011;4504;48.810;9.172;2022-09-01T13:20:54;102.30;;;2.50;;
8938;SDS011;4504;48.810;9.172;2022-09-01T13:23:22;104.00;;;3.23;;
8938;SDS011;4504;48.810;9.172;2022-09-01T13:25:50;101.70;;;2.60;;
8938;SDS011;4504;48.810;9.172;2022-09-01T13:28:17;101.80;;;2.60;;
8938;SDS011;4504;48.810;9.172;2022-09-01T13:30:47;102.57;;;2.67;;
8938;SDS011;4504;48.810;9.172;2022-09-01T13:33:20;101.50;;;2.87;;
8938;SDS011;4504;48.810;9.172;2022-09-01T13:35:48;100.47;;;2.60;;
8938;SDS011;4504;48.810;9.172;2022-09-01T13:38:15;102.37;;;2.83;;
8938;SDS011;4504;48.810;9.172;2022-09-01T13:40:43;101.57;;;2.50;;
8938;SDS011;4504;48.810;9.172;2022-09-01T13:43:11;102.77;;;2.93;;
8938;SDS011;4504;48.810;9.172;2022-09-01T13:45:38;102.30;;;2.50;;
8938;SDS011;4504;48.810;9.172;2022-09-01T13:48:05;102.60;;;2.70;;
8938;SDS011;4504;48.810;9.172;2022-09-01T13:50:34;100.77;;;2.10;;
8938;SDS011;4504;48.810;9.172;2022-09-01T13:53:03;101.73;;;2.50;;
8938;SDS011;4504;48.810;9.172;2022-09-01T13:55:31;102.67;;;2.63;;
8938;SDS011;4504;48.810;9.172;2022-09-01T13:57:59;105.13;;;4.63;;
8938;SDS011;4504;48.810;9.172;2022-09-01T14:00:27;101.27;;;2.13;;
8938;SDS011;4504;48.810;9.172;2022-09-01T14:02:58;100.87;;;2.33;;
8938;SDS011;4504;48.810;9.172;2022-09-01T14:05:28;103.33;;;2.50;;
8938;SDS011;4504;48.810;9.172;2022-09-01T14:07:58;101.57;;;2.43;;
8938;SDS011;4504;48.810;9.172;2022-09-01T14:10:27;101.67;;;2.30;;
8938;SDS011;4504;48.810;9.172;2022-09-01T14:12:56;100.57;;;2.10;;
8938;SDS011;4504;48.810;9.172;2022-09-01T14:15:23;103.17;;;2.17;;
8938;SDS011;4504;48.810;9.172;2022-09-01T14:17:51;100.30;;;2.20;;
8938;SDS011;4504;48.810;9.172;2022-09-01T14:20:22;99.57;;;2.17;;
8938;SDS011;4504;48.810;9.172;2022-09-01T14:22:51;100.87;;;2.40;;
8938;SDS011;4504;48.810;9.172;2022-09-01T14:25:21;99.63;;;2.10;;
8938;SDS011;4504;48.810;9.172;2022-09-01T14:27:49;101.67;;;2.23;;
8938;SDS011;4504;48.810;9.172;2022-09-01T14:30:19;100.10;;;2.20;;
8938;SDS011;4504;48.810;9.172;2022-09-01T14:32:48;100.97;;;2.30;;
8938;SDS011;4504;48.810;9.172;2022-09-01T14:35:17;100.57;;;2.20;;
8938;SDS011;4504;48.810;9.172;2022-09-01T14:37:45;99.43;;;2.10;;
8938;SDS011;4504;48.810;9.172;2022-09-01T14:40:13;100.77;;;2.50;;
8938;SDS011;4504;48.810;9.172;2022-09-01T14:42:42;100.00;;;2.10;;
8938;SDS011;4504;48.810;9.172;2022-09-01T14:45:12;99.73;;;2.17;;
8938;SDS011;4504;48.810;9.172;2022-09-01T14:47:40;100.00;;;2.27;;
8938;SDS011;4504;48.810;9.172;2022-09-01T14:50:08;100.47;;;2.13;;
8938;SDS011;4504;48.810;9.172;2022-09-01T14:52:36;100.43;;;2.10;;
8938;SDS011;4504;48.810;9.172;2022-09-01T14:55:03;100.87;;;2.03;;
8938;SDS011;4504;48.810;9.172;2022-09-01T14:57:30;99.90;;;2.07;;
8938;SDS011;4504;48.810;9.172;2022-09-01T14:59:59;98.07;;;2.10;;
8938;SDS011;4504;48.810;9.172;2022-09-01T15:02:26;101.10;;;2.00;;
8938;SDS011;4504;48.810;9.172;2022-09-01T15:04:53;99.87;;;2.23;;
8938;SDS011;4504;48.810;9.172;2022-09-01T15:07:20;100.57;;;1.97;;
8938;SDS011;4504;48.810;9.172;2022-09-01T15:09:47;100.90;;;1.97;;
8938;SDS011;4504;48.810;9.172;2022-09-01T15:12:15;99.60;;;1.93;;
8938;SDS011;4504;48.810;9.172;2022-09-01T15:14:41;99.97;;;2.20;;
8938;SDS011;4504;48.810;9.172;2022-09-01T15:17:10;99.77;;;2.30;;
8938;SDS011;4504;48.810;9.172;2022-09-01T15:19:37;99.67;;;2.10;;
8938;SDS011;4504;48.810;9.172;2022-09-01T15:22:04;99.27;;;2.10;;
8938;SDS011;4504;48.810;9.172;2022-09-01T15:24:32;98.90;;;1.90;;
8938;SDS011;4504;48.810;9.172;2022-09-01T15:26:59;99.57;;;1.97;;
8938;SDS011;4504;48.810;9.172;2022-09-01T15:29:27;99.20;;;2.30;;
8938;SDS011;4504;48.810;9.172;2022-09-01T15:31:58;99.87;;;2.00;;
8938;SDS011;4504;48.810;9.172;2022-09-01T15:34:28;99.97;;;2.20;;
8938;SDS011;4504;48.810;9.172;2022-09-01T15:36:55;100.17;;;2.03;;